N178LA EDDN-EDDN

Flight info

Callsign N178LA
Flight time 0h 11m
Altitude 3000
Route DCT
Aircraft DR40/L-SFG/C

Departure

Time 2026-05-04 12:23
Airport Nuremberg Airport (EDDN)

Arrival

Time 2026-05-04 12:34
Airport Nuremberg Airport (EDDN)
Time Latitude Longitude Altitude Speed Heading
2026-05-04 12:08 49.49573 11.08274 1035 ft 0 kts 187°
2026-05-04 12:17 49.49570 11.08273 1035 ft 3 kts 189°
2026-05-04 12:18 49.49533 11.08292 1033 ft 6 kts 89°
2026-05-04 12:18 49.49560 11.08357 1036 ft 9 kts 18°
2026-05-04 12:18 49.49600 11.08346 1036 ft 6 kts 295°
2026-05-04 12:18 49.49610 11.08250 1036 ft 15 kts 278°
2026-05-04 12:19 49.49634 11.08007 1036 ft 30 kts 279°
2026-05-04 12:19 49.49665 11.07773 1036 ft 15 kts 326°
2026-05-04 12:19 49.49751 11.07708 1039 ft 17 kts 333°
2026-05-04 12:19 49.49791 11.07677 1039 ft 0 kts 333°
2026-05-04 12:20 49.49796 11.07672 1039 ft 4 kts 327°
2026-05-04 12:21 49.49858 11.07622 1039 ft 19 kts 330°
2026-05-04 12:21 49.49916 11.07346 1037 ft 42 kts 279°
2026-05-04 12:21 49.49978 11.06715 1041 ft 72 kts 278°
2026-05-04 12:21 49.50048 11.05966 1153 ft 71 kts 281°
2026-05-04 12:22 49.50146 11.05254 1315 ft 64 kts 280°
2026-05-04 12:22 49.50214 11.04603 1434 ft 62 kts 278°
2026-05-04 12:22 49.50184 11.03949 1535 ft 63 kts 243°
2026-05-04 12:22 49.49850 11.03531 1625 ft 65 kts 195°
2026-05-04 12:23 49.49387 11.03438 1724 ft 66 kts 185°
2026-05-04 12:23 49.48950 11.03445 1851 ft 62 kts 176°
2026-05-04 12:23 49.48528 11.03326 1929 ft 64 kts 192°
2026-05-04 12:23 49.48080 11.03455 2026 ft 71 kts 135°
2026-05-04 12:24 49.47966 11.04213 2130 ft 77 kts 83°
2026-05-04 12:24 49.48014 11.05020 2285 ft 75 kts 86°
2026-05-04 12:24 49.48024 11.05825 2407 ft 78 kts 83°
2026-05-04 12:24 49.48199 11.06604 2459 ft 86 kts 94°
2026-05-04 12:25 49.48112 11.07448 2631 ft 76 kts 101°
2026-05-04 12:25 49.48022 11.08233 2759 ft 73 kts 96°
2026-05-04 12:25 49.47978 11.09010 2821 ft 73 kts 92°
2026-05-04 12:25 49.47965 11.09730 2976 ft 63 kts 86°
2026-05-04 12:26 49.47982 11.10518 2999 ft 85 kts 85°
2026-05-04 12:26 49.48133 11.11443 3043 ft 92 kts 56°
2026-05-04 12:26 49.48540 11.12169 3135 ft 85 kts 40°
2026-05-04 12:26 49.49033 11.12516 3057 ft 70 kts 347°
2026-05-04 12:27 49.49409 11.12040 2614 ft 77 kts 291°
2026-05-04 12:27 49.49536 11.11141 1977 ft 90 kts 278°
2026-05-04 12:27 49.49633 11.10184 1391 ft 90 kts 280°
2026-05-04 12:27 49.49694 11.09565 1093 ft 84 kts 280°
2026-05-04 12:28 49.49794 11.08598 1057 ft 70 kts 277°
2026-05-04 12:28 49.49872 11.07902 1210 ft 64 kts 281°
2026-05-04 12:28 49.49943 11.07247 1347 ft 61 kts 277°
2026-05-04 12:28 49.49985 11.06814 1429 ft 58 kts 276°
2026-05-04 12:29 49.50034 11.06202 1532 ft 58 kts 274°
2026-05-04 12:29 49.50069 11.05582 1625 ft 58 kts 269°
2026-05-04 12:29 49.49992 11.04976 1709 ft 60 kts 232°
2026-05-04 12:29 49.49595 11.04757 1797 ft 63 kts 177°
2026-05-04 12:30 49.49166 11.04826 1870 ft 63 kts 170°
2026-05-04 12:30 49.48751 11.04938 1947 ft 60 kts 170°
2026-05-04 12:30 49.48371 11.05133 2010 ft 62 kts 118°
2026-05-04 12:30 49.48285 11.05788 2085 ft 63 kts 84°
2026-05-04 12:31 49.48257 11.06481 2146 ft 64 kts 88°
2026-05-04 12:31 49.48287 11.07145 2234 ft 63 kts 78°
2026-05-04 12:31 49.48211 11.07799 2297 ft 69 kts 144°
2026-05-04 12:31 49.47942 11.08323 2332 ft 68 kts 84°
2026-05-04 12:32 49.47989 11.09017 2410 ft 66 kts 76°
2026-05-04 12:32 49.48268 11.10687 2487 ft 95 kts 67°
2026-05-04 12:32 49.48514 11.11607 2527 ft 89 kts 56°
2026-05-04 12:33 49.48871 11.12317 2329 ft 77 kts 38°
2026-05-04 12:33 49.49299 11.12663 2153 ft 65 kts 342°
2026-05-04 12:33 49.49526 11.12147 1900 ft 70 kts 267°
2026-05-04 12:33 49.49517 11.11365 1528 ft 74 kts 275°
2026-05-04 12:34 49.49594 11.10589 1229 ft 71 kts 279°
2026-05-04 12:34 49.49662 11.09922 1112 ft 56 kts 279°
2026-05-04 12:34 49.49714 11.09388 1060 ft 47 kts 277°
2026-05-04 12:34 49.49760 11.08916 1044 ft 46 kts 278°
2026-05-04 12:35 49.49811 11.08372 1077 ft 54 kts 278°
2026-05-04 12:35 49.49869 11.07802 1138 ft 54 kts 281°
2026-05-04 12:35 49.49940 11.07240 1212 ft 53 kts 282°
2026-05-04 12:35 49.49992 11.06637 1267 ft 59 kts 277°
2026-05-04 12:36 49.50035 11.06007 1367 ft 59 kts 276°
2026-05-04 12:36 49.50081 11.05386 1450 ft 61 kts 276°
2026-05-04 12:36 49.49852 11.04860 1515 ft 69 kts 208°
2026-05-04 12:36 49.49419 11.04824 1657 ft 62 kts 174°
2026-05-04 12:37 49.48986 11.04826 1732 ft 63 kts 176°
2026-05-04 12:37 49.48567 11.04974 1815 ft 62 kts 159°
2026-05-04 12:37 49.48305 11.05440 1902 ft 62 kts 97°
2026-05-04 12:37 49.48293 11.06132 1964 ft 65 kts 82°
2026-05-04 12:38 49.48354 11.06832 2052 ft 68 kts 82°
2026-05-04 12:38 49.48375 11.07553 2178 ft 67 kts 83°
2026-05-04 12:38 49.48444 11.08261 2318 ft 66 kts 77°
2026-05-04 12:38 49.48506 11.08986 2443 ft 70 kts 80°
2026-05-04 12:39 49.48585 11.09747 2596 ft 74 kts 77°
2026-05-04 12:39 49.48715 11.10565 2787 ft 82 kts 68°
2026-05-04 12:39 49.48905 11.11372 3068 ft 81 kts 70°
2026-05-04 12:39 49.48950 11.12187 2945 ft 83 kts 97°
2026-05-04 12:40 49.49078 11.12965 2742 ft 77 kts 29°
2026-05-04 12:40 49.49443 11.12632 2371 ft 77 kts 272°
2026-05-04 12:40 49.49474 11.11741 1751 ft 89 kts 278°
2026-05-04 12:40 49.49562 11.10874 1412 ft 77 kts 281°
2026-05-04 12:41 49.49649 11.10084 1156 ft 71 kts 280°
2026-05-04 12:41 49.49710 11.09445 1070 ft 53 kts 280°
2026-05-04 12:41 49.49761 11.08951 1044 ft 38 kts 276°
2026-05-04 12:41 49.49787 11.08630 1037 ft 20 kts 269°
2026-05-04 12:42 49.49715 11.08560 1039 ft 0 kts 206°
2026-05-04 12:42 49.49713 11.08558 1039 ft 0 kts 206°
2026-05-04 12:43 49.49690 11.08533 1038 ft 14 kts 225°
2026-05-04 12:43 49.49605 11.08299 1036 ft 29 kts 254°